THY3EN LTFM-EDDF
Flight info
| Callsign | THY3EN |
|---|---|
| Flight time | 2h 31m |
| Altitude | 38000 |
| Route | TUDBU Q26 ETUBA DCT NAVOD DCT MOPUG DCT ARSIN DCT SUBEN DCT AKINI T161 DEBHI SPESA5C |
| Aircraft | B77W/H-SDE1E2E3FGHIJ2J3J4J5M1RWXY/LB1D1 |
Departure
| Time | 2026-04-15 08:37 |
|---|---|
| Airport | İstanbul Airport (LTFM) |
Arrival
| Time | 2026-04-15 11:09 |
|---|---|
| Airport | Frankfurt Main Airport (EDDF) |
| Time | Latitude | Longitude | Altitude | Speed | Heading |
|---|---|---|---|---|---|
| 2026-04-15 08:20 | 41.26790 | 28.73442 | 334 ft | 0 kts | 179° |
| 2026-04-15 08:28 | 41.26800 | 28.73441 | 334 ft | 3 kts | 179° |
| 2026-04-15 08:28 | 41.26820 | 28.73441 | 333 ft | 3 kts | 179° |
| 2026-04-15 08:29 | 41.26838 | 28.73440 | 333 ft | 2 kts | 179° |
| 2026-04-15 08:29 | 41.26854 | 28.73441 | 333 ft | 3 kts | 204° |
| 2026-04-15 08:29 | 41.26867 | 28.73455 | 333 ft | 3 kts | 251° |
| 2026-04-15 08:29 | 41.26871 | 28.73481 | 333 ft | 3 kts | 268° |
| 2026-04-15 08:30 | 41.26871 | 28.73496 | 334 ft | 2 kts | 269° |
| 2026-04-15 08:30 | 41.26871 | 28.73505 | 334 ft | 0 kts | 269° |
| 2026-04-15 08:32 | 41.26871 | 28.73502 | 334 ft | 1 kts | 269° |
| 2026-04-15 08:32 | 41.26870 | 28.73459 | 333 ft | 7 kts | 269° |
| 2026-04-15 08:32 | 41.26870 | 28.73391 | 334 ft | 8 kts | 269° |
| 2026-04-15 08:33 | 41.26869 | 28.73317 | 335 ft | 8 kts | 269° |
| 2026-04-15 08:33 | 41.26868 | 28.73239 | 336 ft | 9 kts | 269° |
| 2026-04-15 08:33 | 41.26867 | 28.73157 | 336 ft | 9 kts | 269° |
| 2026-04-15 08:33 | 41.26866 | 28.73070 | 336 ft | 10 kts | 269° |
| 2026-04-15 08:34 | 41.26836 | 28.72999 | 335 ft | 10 kts | 202° |
| 2026-04-15 08:34 | 41.26766 | 28.72991 | 334 ft | 10 kts | 178° |
| 2026-04-15 08:34 | 41.26696 | 28.72993 | 338 ft | 10 kts | 179° |
| 2026-04-15 08:34 | 41.26627 | 28.72990 | 335 ft | 8 kts | 201° |
| 2026-04-15 08:35 | 41.26608 | 28.72964 | 334 ft | 0 kts | 239° |
| 2026-04-15 08:35 | 41.26607 | 28.72962 | 334 ft | 3 kts | 240° |
| 2026-04-15 08:35 | 41.26593 | 28.72867 | 337 ft | 17 kts | 269° |
| 2026-04-15 08:36 | 41.26593 | 28.72707 | 338 ft | 17 kts | 269° |
| 2026-04-15 08:36 | 41.26592 | 28.72563 | 338 ft | 13 kts | 281° |
| 2026-04-15 08:36 | 41.26652 | 28.72518 | 334 ft | 10 kts | 356° |
| 2026-04-15 08:36 | 41.26689 | 28.72516 | 336 ft | 18 kts | 358° |
| 2026-04-15 08:37 | 41.27116 | 28.72506 | 335 ft | 103 kts | 359° |
| 2026-04-15 08:37 | 41.28085 | 28.72480 | 352 ft | 170 kts | 359° |
| 2026-04-15 08:37 | 41.29309 | 28.72415 | 1005 ft | 175 kts | 0° |
| 2026-04-15 08:37 | 41.30531 | 28.72334 | 1883 ft | 179 kts | 2° |
| 2026-04-15 08:38 | 41.31841 | 28.72367 | 2361 ft | 201 kts | 6° |
| 2026-04-15 08:38 | 41.33358 | 28.72434 | 2596 ft | 235 kts | 5° |
| 2026-04-15 08:38 | 41.35087 | 28.72486 | 3150 ft | 259 kts | 4° |
| 2026-04-15 08:38 | 41.36920 | 28.72524 | 4170 ft | 264 kts | 2° |
| 2026-04-15 08:39 | 41.38741 | 28.72303 | 5047 ft | 267 kts | 341° |
| 2026-04-15 08:39 | 41.40430 | 28.71241 | 5767 ft | 271 kts | 332° |
| 2026-04-15 08:39 | 41.42119 | 28.70107 | 6763 ft | 272 kts | 332° |
| 2026-04-15 08:39 | 41.43797 | 28.69013 | 7675 ft | 273 kts | 332° |
| 2026-04-15 08:40 | 41.45510 | 28.67906 | 8598 ft | 275 kts | 332° |
| 2026-04-15 08:40 | 41.47247 | 28.66786 | 9478 ft | 279 kts | 332° |
| 2026-04-15 08:40 | 41.49009 | 28.65654 | 10314 ft | 284 kts | 332° |
| 2026-04-15 08:40 | 41.50848 | 28.64473 | 10703 ft | 307 kts | 332° |
| 2026-04-15 08:41 | 41.52862 | 28.63180 | 10914 ft | 335 kts | 333° |
| 2026-04-15 08:41 | 41.55035 | 28.61786 | 11391 ft | 353 kts | 333° |
| 2026-04-15 08:41 | 41.57253 | 28.60303 | 12109 ft | 359 kts | 328° |
| 2026-04-15 08:41 | 41.59142 | 28.58106 | 12711 ft | 363 kts | 310° |
| 2026-04-15 08:42 | 41.60797 | 28.55480 | 13573 ft | 373 kts | 310° |
| 2026-04-15 08:42 | 41.62520 | 28.52881 | 14662 ft | 375 kts | 311° |
| 2026-04-15 08:42 | 41.64282 | 28.50288 | 15706 ft | 378 kts | 312° |
| 2026-04-15 08:42 | 41.66068 | 28.47674 | 16676 ft | 383 kts | 311° |
| 2026-04-15 08:43 | 41.67711 | 28.44857 | 17573 ft | 387 kts | 299° |
| 2026-04-15 08:43 | 41.68840 | 28.41559 | 18471 ft | 393 kts | 292° |
| 2026-04-15 08:43 | 41.69877 | 28.38156 | 19324 ft | 397 kts | 292° |
| 2026-04-15 08:43 | 41.70936 | 28.34726 | 20223 ft | 400 kts | 292° |
| 2026-04-15 08:44 | 41.72021 | 28.31289 | 21111 ft | 403 kts | 292° |
| 2026-04-15 08:44 | 41.73131 | 28.27830 | 21967 ft | 407 kts | 292° |
| 2026-04-15 08:44 | 41.74263 | 28.24339 | 22805 ft | 411 kts | 292° |
| 2026-04-15 08:44 | 41.75411 | 28.20810 | 23605 ft | 415 kts | 292° |
| 2026-04-15 08:45 | 41.76572 | 28.17244 | 24318 ft | 419 kts | 292° |
| 2026-04-15 08:45 | 41.77738 | 28.13653 | 25040 ft | 421 kts | 292° |
| 2026-04-15 08:45 | 41.78906 | 28.10053 | 25792 ft | 422 kts | 292° |
| 2026-04-15 08:45 | 41.80271 | 28.06557 | 26477 ft | 426 kts | 301° |
| 2026-04-15 08:46 | 41.82052 | 28.03356 | 27145 ft | 430 kts | 305° |
| 2026-04-15 08:46 | 41.83923 | 28.00212 | 27809 ft | 433 kts | 305° |
| 2026-04-15 08:46 | 41.85796 | 27.97041 | 28451 ft | 435 kts | 304° |
| 2026-04-15 08:46 | 41.87656 | 27.93824 | 29060 ft | 437 kts | 304° |
| 2026-04-15 08:47 | 41.89507 | 27.90560 | 29651 ft | 440 kts | 303° |
| 2026-04-15 08:47 | 41.91351 | 27.87275 | 30217 ft | 442 kts | 303° |
| 2026-04-15 08:47 | 41.93205 | 27.83958 | 30669 ft | 445 kts | 303° |
| 2026-04-15 08:47 | 41.95068 | 27.80622 | 31053 ft | 448 kts | 303° |
| 2026-04-15 08:48 | 41.96952 | 27.77282 | 31551 ft | 449 kts | 304° |
| 2026-04-15 08:48 | 41.99009 | 27.74116 | 32142 ft | 449 kts | 309° |
| 2026-04-15 08:48 | 42.01192 | 27.71121 | 32764 ft | 448 kts | 310° |
| 2026-04-15 08:48 | 42.03418 | 27.68191 | 33320 ft | 446 kts | 311° |
| 2026-04-15 08:49 | 42.05638 | 27.65278 | 33842 ft | 445 kts | 311° |
| 2026-04-15 08:49 | 42.07841 | 27.62356 | 34356 ft | 444 kts | 310° |
| 2026-04-15 08:49 | 42.10022 | 27.59422 | 34750 ft | 444 kts | 310° |
| 2026-04-15 08:49 | 42.12201 | 27.56457 | 35060 ft | 445 kts | 310° |
| 2026-04-15 08:50 | 42.14368 | 27.53483 | 35472 ft | 445 kts | 310° |
| 2026-04-15 08:50 | 42.16530 | 27.50504 | 35869 ft | 444 kts | 310° |
| 2026-04-15 08:50 | 42.18659 | 27.47564 | 36246 ft | 444 kts | 310° |
| 2026-04-15 08:50 | 42.20813 | 27.44586 | 36591 ft | 444 kts | 310° |
| 2026-04-15 08:51 | 42.22968 | 27.41604 | 36954 ft | 443 kts | 310° |
| 2026-04-15 08:51 | 42.25120 | 27.38623 | 37307 ft | 443 kts | 310° |
| 2026-04-15 08:51 | 42.27279 | 27.35630 | 37479 ft | 447 kts | 310° |
| 2026-04-15 08:51 | 42.29451 | 27.32615 | 37763 ft | 448 kts | 310° |
| 2026-04-15 08:52 | 42.31623 | 27.29600 | 38119 ft | 447 kts | 310° |
| 2026-04-15 08:52 | 42.35989 | 27.23527 | 38249 ft | 452 kts | 310° |
| 2026-04-15 08:53 | 42.40345 | 27.17462 | 38244 ft | 446 kts | 310° |
| 2026-04-15 08:53 | 42.44663 | 27.11433 | 38269 ft | 447 kts | 310° |
| 2026-04-15 08:54 | 42.49006 | 27.05352 | 38258 ft | 450 kts | 309° |
| 2026-04-15 08:54 | 42.53369 | 26.99231 | 38263 ft | 452 kts | 309° |
| 2026-04-15 08:55 | 42.57747 | 26.93079 | 38257 ft | 453 kts | 310° |
| 2026-04-15 08:55 | 42.62131 | 26.86904 | 38256 ft | 454 kts | 310° |
| 2026-04-15 08:56 | 42.66512 | 26.80720 | 38251 ft | 455 kts | 309° |
| 2026-04-15 08:56 | 42.70896 | 26.74519 | 38238 ft | 454 kts | 309° |
| 2026-04-15 08:57 | 42.75265 | 26.68323 | 38250 ft | 454 kts | 309° |
| 2026-04-15 08:57 | 42.79629 | 26.62122 | 38221 ft | 453 kts | 309° |
| 2026-04-15 08:58 | 42.83487 | 26.55442 | 38227 ft | 446 kts | 299° |
| 2026-04-15 08:58 | 42.88513 | 26.44785 | 38208 ft | 446 kts | 299° |
| 2026-04-15 08:59 | 42.91869 | 26.37671 | 38229 ft | 446 kts | 299° |
| 2026-04-15 08:59 | 42.95238 | 26.30557 | 38225 ft | 446 kts | 299° |
| 2026-04-15 09:00 | 42.98614 | 26.23430 | 38216 ft | 447 kts | 299° |
| 2026-04-15 09:00 | 43.01988 | 26.16291 | 38194 ft | 448 kts | 299° |
| 2026-04-15 09:01 | 43.05348 | 26.09163 | 38192 ft | 450 kts | 299° |
| 2026-04-15 09:01 | 43.08732 | 26.01966 | 38218 ft | 450 kts | 299° |
| 2026-04-15 09:02 | 43.12115 | 25.94754 | 38199 ft | 451 kts | 299° |
| 2026-04-15 09:02 | 43.15497 | 25.87525 | 38211 ft | 451 kts | 299° |
| 2026-04-15 09:03 | 43.18875 | 25.80288 | 38208 ft | 450 kts | 299° |
| 2026-04-15 09:03 | 43.22238 | 25.73067 | 38208 ft | 449 kts | 299° |
| 2026-04-15 09:04 | 43.25589 | 25.65851 | 38214 ft | 448 kts | 299° |
| 2026-04-15 09:04 | 43.28933 | 25.58634 | 38211 ft | 447 kts | 299° |
| 2026-04-15 09:05 | 43.32265 | 25.51425 | 38209 ft | 447 kts | 299° |
| 2026-04-15 09:05 | 43.35588 | 25.44216 | 38214 ft | 447 kts | 299° |
| 2026-04-15 09:06 | 43.38909 | 25.36997 | 38216 ft | 447 kts | 299° |
| 2026-04-15 09:06 | 43.42226 | 25.29766 | 38210 ft | 447 kts | 299° |
| 2026-04-15 09:07 | 43.45524 | 25.22559 | 38218 ft | 448 kts | 299° |
| 2026-04-15 09:07 | 43.48846 | 25.15282 | 38221 ft | 449 kts | 299° |
| 2026-04-15 09:08 | 43.52164 | 25.07994 | 38222 ft | 449 kts | 299° |
| 2026-04-15 09:08 | 43.55483 | 25.00688 | 38239 ft | 450 kts | 299° |
| 2026-04-15 09:09 | 43.58796 | 24.93376 | 38222 ft | 450 kts | 299° |
| 2026-04-15 09:09 | 43.62103 | 24.86059 | 38224 ft | 449 kts | 299° |
| 2026-04-15 09:10 | 43.65401 | 24.78744 | 38227 ft | 448 kts | 299° |
| 2026-04-15 09:10 | 43.68686 | 24.71439 | 38228 ft | 447 kts | 299° |
| 2026-04-15 09:11 | 43.71962 | 24.64137 | 38229 ft | 447 kts | 299° |
| 2026-04-15 09:11 | 43.75282 | 24.56880 | 38229 ft | 448 kts | 302° |
| 2026-04-15 09:12 | 43.79317 | 24.50272 | 38234 ft | 451 kts | 309° |
| 2026-04-15 09:12 | 43.83606 | 24.43923 | 38234 ft | 452 kts | 310° |
| 2026-04-15 09:13 | 43.87877 | 24.37572 | 38233 ft | 452 kts | 309° |
| 2026-04-15 09:13 | 43.92150 | 24.31161 | 38241 ft | 453 kts | 309° |
| 2026-04-15 09:14 | 43.96413 | 24.24727 | 38236 ft | 453 kts | 309° |
| 2026-04-15 09:14 | 44.00681 | 24.18266 | 38239 ft | 454 kts | 309° |
| 2026-04-15 09:15 | 44.04947 | 24.11794 | 38236 ft | 454 kts | 309° |
| 2026-04-15 09:15 | 44.09216 | 24.05304 | 38236 ft | 455 kts | 309° |
| 2026-04-15 09:16 | 44.13470 | 23.98824 | 38237 ft | 455 kts | 309° |
| 2026-04-15 09:16 | 44.17743 | 23.92300 | 38239 ft | 456 kts | 309° |
| 2026-04-15 09:17 | 44.22011 | 23.85766 | 38239 ft | 456 kts | 309° |
| 2026-04-15 09:17 | 44.26253 | 23.79259 | 38240 ft | 456 kts | 309° |
| 2026-04-15 09:18 | 44.30522 | 23.72695 | 38235 ft | 457 kts | 309° |
| 2026-04-15 09:18 | 44.34792 | 23.66113 | 38241 ft | 457 kts | 309° |
| 2026-04-15 09:19 | 44.38337 | 23.60637 | 38240 ft | 457 kts | 309° |
| 2026-04-15 09:19 | 44.42599 | 23.54040 | 38237 ft | 457 kts | 309° |
| 2026-04-15 09:20 | 44.46855 | 23.47437 | 38237 ft | 457 kts | 309° |
| 2026-04-15 09:20 | 44.51113 | 23.40814 | 38246 ft | 458 kts | 309° |
| 2026-04-15 09:21 | 44.55375 | 23.34171 | 38231 ft | 458 kts | 309° |
| 2026-04-15 09:21 | 44.59630 | 23.27521 | 38233 ft | 458 kts | 309° |
| 2026-04-15 09:22 | 44.63880 | 23.20864 | 38234 ft | 458 kts | 309° |
| 2026-04-15 09:22 | 44.68128 | 23.14194 | 38230 ft | 458 kts | 309° |
| 2026-04-15 09:23 | 44.72375 | 23.07511 | 38237 ft | 458 kts | 309° |
| 2026-04-15 09:23 | 44.76620 | 23.00814 | 38227 ft | 459 kts | 309° |
| 2026-04-15 09:24 | 44.80861 | 22.94107 | 38228 ft | 458 kts | 309° |
| 2026-04-15 09:24 | 44.85095 | 22.87396 | 38235 ft | 458 kts | 309° |
| 2026-04-15 09:25 | 44.89321 | 22.80682 | 38218 ft | 457 kts | 309° |
| 2026-04-15 09:25 | 44.93531 | 22.73977 | 38222 ft | 456 kts | 309° |
| 2026-04-15 09:26 | 44.97730 | 22.67272 | 38218 ft | 456 kts | 309° |
| 2026-04-15 09:26 | 45.01927 | 22.60555 | 38203 ft | 456 kts | 309° |
| 2026-04-15 09:27 | 45.06112 | 22.53839 | 38197 ft | 455 kts | 309° |
| 2026-04-15 09:27 | 45.10292 | 22.47117 | 38200 ft | 455 kts | 309° |
| 2026-04-15 09:28 | 45.14474 | 22.40378 | 38198 ft | 456 kts | 309° |
| 2026-04-15 09:28 | 45.18658 | 22.33617 | 38187 ft | 456 kts | 309° |
| 2026-04-15 09:29 | 45.22841 | 22.26840 | 38178 ft | 456 kts | 309° |
| 2026-04-15 09:29 | 45.26990 | 22.20103 | 38179 ft | 456 kts | 309° |
| 2026-04-15 09:30 | 45.31165 | 22.13307 | 38172 ft | 457 kts | 309° |
| 2026-04-15 09:30 | 45.35338 | 22.06497 | 38176 ft | 457 kts | 309° |
| 2026-04-15 09:31 | 45.39511 | 21.99673 | 38172 ft | 457 kts | 309° |
| 2026-04-15 09:31 | 45.43677 | 21.92841 | 38172 ft | 457 kts | 309° |
| 2026-04-15 09:32 | 45.47839 | 21.86000 | 38183 ft | 457 kts | 309° |
| 2026-04-15 09:32 | 45.51998 | 21.79148 | 38185 ft | 457 kts | 309° |
| 2026-04-15 09:33 | 45.56148 | 21.72292 | 38176 ft | 457 kts | 309° |
| 2026-04-15 09:33 | 45.60296 | 21.65423 | 38185 ft | 457 kts | 309° |
| 2026-04-15 09:34 | 45.64442 | 21.58540 | 38200 ft | 457 kts | 309° |
| 2026-04-15 09:34 | 45.68583 | 21.51649 | 38192 ft | 457 kts | 309° |
| 2026-04-15 09:35 | 45.72711 | 21.44763 | 38209 ft | 457 kts | 308° |
| 2026-04-15 09:35 | 45.76818 | 21.37892 | 38214 ft | 457 kts | 308° |
| 2026-04-15 09:36 | 45.80941 | 21.30979 | 38217 ft | 456 kts | 308° |
| 2026-04-15 09:36 | 45.85061 | 21.24055 | 38182 ft | 456 kts | 308° |
| 2026-04-15 09:37 | 45.89178 | 21.17117 | 38188 ft | 456 kts | 308° |
| 2026-04-15 09:37 | 45.93290 | 21.10172 | 38192 ft | 456 kts | 308° |
| 2026-04-15 09:38 | 45.97391 | 21.03227 | 38205 ft | 456 kts | 308° |
| 2026-04-15 09:38 | 46.01487 | 20.96272 | 38203 ft | 456 kts | 308° |
| 2026-04-15 09:39 | 46.05581 | 20.89303 | 38203 ft | 456 kts | 308° |
| 2026-04-15 09:39 | 46.09672 | 20.82321 | 38212 ft | 456 kts | 308° |
| 2026-04-15 09:40 | 46.13768 | 20.75317 | 38202 ft | 456 kts | 308° |
| 2026-04-15 09:40 | 46.17542 | 20.68001 | 38201 ft | 454 kts | 298° |
| 2026-04-15 09:41 | 46.20580 | 20.60025 | 38210 ft | 453 kts | 297° |
| 2026-04-15 09:41 | 46.23574 | 20.52013 | 38207 ft | 454 kts | 297° |
| 2026-04-15 09:42 | 46.26586 | 20.43993 | 38201 ft | 454 kts | 297° |
| 2026-04-15 09:42 | 46.29604 | 20.35983 | 38199 ft | 454 kts | 297° |
| 2026-04-15 09:43 | 46.32619 | 20.27974 | 38205 ft | 453 kts | 297° |
| 2026-04-15 09:43 | 46.35631 | 20.19950 | 38204 ft | 453 kts | 297° |
| 2026-04-15 09:44 | 46.38613 | 20.11979 | 38203 ft | 453 kts | 297° |
| 2026-04-15 09:44 | 46.41611 | 20.03941 | 38204 ft | 453 kts | 297° |
| 2026-04-15 09:45 | 46.44623 | 19.95843 | 38200 ft | 454 kts | 297° |
| 2026-04-15 09:45 | 46.47592 | 19.87834 | 38211 ft | 454 kts | 297° |
| 2026-04-15 09:46 | 46.50573 | 19.79769 | 38204 ft | 454 kts | 297° |
| 2026-04-15 09:46 | 46.53552 | 19.71689 | 38200 ft | 454 kts | 297° |
| 2026-04-15 09:47 | 46.56520 | 19.63610 | 38202 ft | 453 kts | 297° |
| 2026-04-15 09:47 | 46.59485 | 19.55518 | 38202 ft | 453 kts | 296° |
| 2026-04-15 09:48 | 46.62446 | 19.47409 | 38203 ft | 454 kts | 296° |
| 2026-04-15 09:48 | 46.65402 | 19.39293 | 38203 ft | 454 kts | 296° |
| 2026-04-15 09:49 | 46.68349 | 19.31172 | 38200 ft | 454 kts | 296° |
| 2026-04-15 09:49 | 46.71297 | 19.23027 | 38200 ft | 455 kts | 296° |
| 2026-04-15 09:50 | 46.74245 | 19.14858 | 38199 ft | 455 kts | 296° |
| 2026-04-15 09:50 | 46.77186 | 19.06680 | 38201 ft | 456 kts | 296° |
| 2026-04-15 09:51 | 46.80128 | 18.98478 | 38199 ft | 456 kts | 296° |
| 2026-04-15 09:51 | 46.83047 | 18.90312 | 38203 ft | 457 kts | 296° |
| 2026-04-15 09:52 | 46.85985 | 18.82069 | 38202 ft | 457 kts | 296° |
| 2026-04-15 09:52 | 46.88917 | 18.73816 | 38204 ft | 458 kts | 296° |
| 2026-04-15 09:53 | 46.91851 | 18.65531 | 38211 ft | 459 kts | 296° |
| 2026-04-15 09:53 | 46.94790 | 18.57209 | 38215 ft | 461 kts | 296° |
| 2026-04-15 09:54 | 46.97731 | 18.48852 | 38205 ft | 462 kts | 296° |
| 2026-04-15 09:54 | 47.00675 | 18.40461 | 38189 ft | 463 kts | 296° |
| 2026-04-15 09:55 | 47.03610 | 18.32070 | 38191 ft | 463 kts | 296° |
| 2026-04-15 09:55 | 47.06544 | 18.23652 | 38215 ft | 463 kts | 296° |
| 2026-04-15 09:56 | 47.09471 | 18.15228 | 38196 ft | 464 kts | 296° |
| 2026-04-15 09:57 | 47.13854 | 18.02565 | 38205 ft | 464 kts | 296° |
| 2026-04-15 09:57 | 47.16773 | 17.94096 | 38216 ft | 464 kts | 296° |
| 2026-04-15 09:58 | 47.19665 | 17.85680 | 38221 ft | 464 kts | 296° |
| 2026-04-15 09:58 | 47.22568 | 17.77204 | 38216 ft | 464 kts | 296° |
| 2026-04-15 09:59 | 47.25464 | 17.68719 | 38221 ft | 464 kts | 296° |
| 2026-04-15 09:59 | 47.28357 | 17.60216 | 38249 ft | 464 kts | 296° |
| 2026-04-15 10:00 | 47.31240 | 17.51714 | 38228 ft | 464 kts | 296° |
| 2026-04-15 10:00 | 47.34111 | 17.43222 | 38250 ft | 462 kts | 296° |
| 2026-04-15 10:01 | 47.36970 | 17.34739 | 38255 ft | 461 kts | 296° |
| 2026-04-15 10:01 | 47.39818 | 17.26258 | 38224 ft | 461 kts | 296° |
| 2026-04-15 10:02 | 47.42657 | 17.17775 | 38221 ft | 460 kts | 296° |
| 2026-04-15 10:02 | 47.45485 | 17.09299 | 38217 ft | 460 kts | 296° |
| 2026-04-15 10:03 | 47.48287 | 17.00873 | 38216 ft | 460 kts | 296° |
| 2026-04-15 10:03 | 47.51103 | 16.92374 | 38230 ft | 460 kts | 296° |
| 2026-04-15 10:04 | 47.53919 | 16.83851 | 38205 ft | 460 kts | 296° |
| 2026-04-15 10:04 | 47.56716 | 16.75323 | 38208 ft | 461 kts | 295° |
| 2026-04-15 10:05 | 47.59182 | 16.66571 | 38210 ft | 461 kts | 292° |
| 2026-04-15 10:05 | 47.61553 | 16.57728 | 38226 ft | 462 kts | 292° |
| 2026-04-15 10:06 | 47.63925 | 16.48880 | 38234 ft | 462 kts | 292° |
| 2026-04-15 10:06 | 47.65905 | 16.41520 | 38210 ft | 462 kts | 292° |
| 2026-04-15 10:07 | 47.68288 | 16.32668 | 38213 ft | 462 kts | 292° |
| 2026-04-15 10:07 | 47.70667 | 16.23804 | 38219 ft | 462 kts | 292° |
| 2026-04-15 10:08 | 47.73036 | 16.14938 | 38211 ft | 462 kts | 292° |
| 2026-04-15 10:08 | 47.75399 | 16.06060 | 38228 ft | 463 kts | 292° |
| 2026-04-15 10:09 | 47.77762 | 15.97150 | 38223 ft | 464 kts | 292° |
| 2026-04-15 10:09 | 47.80122 | 15.88217 | 38229 ft | 465 kts | 292° |
| 2026-04-15 10:10 | 47.82484 | 15.79239 | 38219 ft | 466 kts | 292° |
| 2026-04-15 10:10 | 47.84841 | 15.70247 | 38239 ft | 466 kts | 292° |
| 2026-04-15 10:11 | 47.87177 | 15.61300 | 38240 ft | 467 kts | 292° |
| 2026-04-15 10:11 | 47.89525 | 15.52275 | 38238 ft | 467 kts | 292° |
| 2026-04-15 10:12 | 47.91866 | 15.43238 | 38232 ft | 467 kts | 292° |
| 2026-04-15 10:12 | 47.94195 | 15.34207 | 38241 ft | 467 kts | 292° |
| 2026-04-15 10:13 | 47.96521 | 15.25162 | 38230 ft | 467 kts | 292° |
| 2026-04-15 10:13 | 47.98837 | 15.16116 | 38236 ft | 467 kts | 292° |
| 2026-04-15 10:14 | 48.01147 | 15.07057 | 38236 ft | 466 kts | 292° |
| 2026-04-15 10:14 | 48.03446 | 14.98003 | 38235 ft | 466 kts | 292° |
| 2026-04-15 10:15 | 48.05738 | 14.88943 | 38244 ft | 466 kts | 292° |
| 2026-04-15 10:15 | 48.08029 | 14.79850 | 38229 ft | 467 kts | 292° |
| 2026-04-15 10:16 | 48.10311 | 14.70757 | 38235 ft | 466 kts | 292° |
| 2026-04-15 10:16 | 48.12580 | 14.61677 | 38227 ft | 466 kts | 292° |
| 2026-04-15 10:17 | 48.14839 | 14.52604 | 38232 ft | 465 kts | 292° |
| 2026-04-15 10:17 | 48.17088 | 14.43534 | 38245 ft | 464 kts | 292° |
| 2026-04-15 10:18 | 48.19327 | 14.34466 | 38244 ft | 464 kts | 292° |
| 2026-04-15 10:18 | 48.21560 | 14.25388 | 38239 ft | 464 kts | 292° |
| 2026-04-15 10:19 | 48.23781 | 14.16318 | 38241 ft | 463 kts | 292° |
| 2026-04-15 10:19 | 48.25996 | 14.07238 | 38235 ft | 463 kts | 292° |
| 2026-04-15 10:20 | 48.28201 | 13.98160 | 38231 ft | 463 kts | 292° |
| 2026-04-15 10:20 | 48.30399 | 13.89077 | 38231 ft | 463 kts | 292° |
| 2026-04-15 10:21 | 48.32588 | 13.79986 | 38223 ft | 462 kts | 292° |
| 2026-04-15 10:21 | 48.34755 | 13.70955 | 38230 ft | 462 kts | 292° |
| 2026-04-15 10:22 | 48.36930 | 13.61855 | 38229 ft | 462 kts | 292° |
| 2026-04-15 10:22 | 48.39099 | 13.52741 | 38231 ft | 463 kts | 292° |
| 2026-04-15 10:23 | 48.41259 | 13.43622 | 38218 ft | 463 kts | 293° |
| 2026-04-15 10:23 | 48.43414 | 13.34499 | 38229 ft | 462 kts | 293° |
| 2026-04-15 10:24 | 48.45692 | 13.25467 | 38229 ft | 461 kts | 295° |
| 2026-04-15 10:24 | 48.48104 | 13.16528 | 38230 ft | 460 kts | 295° |
| 2026-04-15 10:25 | 48.50498 | 13.07579 | 38229 ft | 460 kts | 295° |
| 2026-04-15 10:25 | 48.52860 | 12.98606 | 38226 ft | 460 kts | 295° |
| 2026-04-15 10:26 | 48.55206 | 12.89622 | 38230 ft | 460 kts | 295° |
| 2026-04-15 10:26 | 48.57543 | 12.80633 | 38227 ft | 460 kts | 295° |
| 2026-04-15 10:27 | 48.59875 | 12.71635 | 38235 ft | 460 kts | 295° |
| 2026-04-15 10:27 | 48.62200 | 12.62630 | 38233 ft | 460 kts | 295° |
| 2026-04-15 10:28 | 48.64520 | 12.53609 | 38240 ft | 460 kts | 295° |
| 2026-04-15 10:28 | 48.66820 | 12.44629 | 38233 ft | 461 kts | 295° |
| 2026-04-15 10:29 | 48.69128 | 12.35582 | 38230 ft | 461 kts | 295° |
| 2026-04-15 10:29 | 48.71429 | 12.26528 | 38207 ft | 461 kts | 295° |
| 2026-04-15 10:30 | 48.73725 | 12.17461 | 38228 ft | 461 kts | 295° |
| 2026-04-15 10:30 | 48.75553 | 12.08101 | 38226 ft | 467 kts | 284° |
| 2026-04-15 10:31 | 48.76567 | 11.98355 | 38233 ft | 469 kts | 282° |
| 2026-04-15 10:31 | 48.77558 | 11.88576 | 38225 ft | 469 kts | 283° |
| 2026-04-15 10:32 | 48.78583 | 11.78802 | 38227 ft | 469 kts | 283° |
| 2026-04-15 10:32 | 48.79614 | 11.69031 | 38235 ft | 469 kts | 283° |
| 2026-04-15 10:33 | 48.80633 | 11.59265 | 38241 ft | 469 kts | 283° |
| 2026-04-15 10:33 | 48.81657 | 11.49488 | 38240 ft | 469 kts | 283° |
| 2026-04-15 10:33 | 48.82166 | 11.44603 | 38126 ft | 469 kts | 283° |
| 2026-04-15 10:34 | 48.82673 | 11.39715 | 37728 ft | 468 kts | 284° |
| 2026-04-15 10:34 | 48.83172 | 11.34873 | 37294 ft | 462 kts | 284° |
| 2026-04-15 10:34 | 48.83662 | 11.30082 | 36851 ft | 456 kts | 285° |
| 2026-04-15 10:34 | 48.84392 | 11.25500 | 36384 ft | 440 kts | 297° |
| 2026-04-15 10:35 | 48.85714 | 11.21408 | 35989 ft | 425 kts | 308° |
| 2026-04-15 10:35 | 48.87414 | 11.17808 | 35513 ft | 414 kts | 317° |
| 2026-04-15 10:35 | 48.89457 | 11.14819 | 35070 ft | 404 kts | 324° |
| 2026-04-15 10:35 | 48.91563 | 11.12019 | 34629 ft | 400 kts | 324° |
| 2026-04-15 10:36 | 48.93635 | 11.09203 | 34182 ft | 397 kts | 324° |
| 2026-04-15 10:36 | 48.95670 | 11.06388 | 33677 ft | 394 kts | 323° |
| 2026-04-15 10:36 | 48.97652 | 11.03617 | 33181 ft | 390 kts | 323° |
| 2026-04-15 10:36 | 48.99632 | 11.00825 | 32767 ft | 386 kts | 322° |
| 2026-04-15 10:37 | 49.01590 | 10.98058 | 32334 ft | 382 kts | 322° |
| 2026-04-15 10:37 | 49.03532 | 10.95316 | 31930 ft | 379 kts | 322° |
| 2026-04-15 10:37 | 49.05460 | 10.92593 | 31498 ft | 376 kts | 322° |
| 2026-04-15 10:37 | 49.07370 | 10.89893 | 31071 ft | 374 kts | 322° |
| 2026-04-15 10:38 | 49.09270 | 10.87208 | 30661 ft | 371 kts | 321° |
| 2026-04-15 10:38 | 49.11158 | 10.84545 | 30223 ft | 369 kts | 321° |
| 2026-04-15 10:38 | 49.13040 | 10.81888 | 29764 ft | 367 kts | 321° |
| 2026-04-15 10:38 | 49.14909 | 10.79247 | 29323 ft | 364 kts | 321° |
| 2026-04-15 10:39 | 49.16759 | 10.76630 | 28896 ft | 362 kts | 321° |
| 2026-04-15 10:39 | 49.18595 | 10.74028 | 28464 ft | 359 kts | 321° |
| 2026-04-15 10:39 | 49.20416 | 10.71416 | 28035 ft | 357 kts | 319° |
| 2026-04-15 10:39 | 49.22158 | 10.68723 | 27593 ft | 356 kts | 317° |
| 2026-04-15 10:40 | 49.23871 | 10.65992 | 27202 ft | 354 kts | 317° |
| 2026-04-15 10:40 | 49.25568 | 10.63277 | 26789 ft | 352 kts | 317° |
| 2026-04-15 10:40 | 49.27261 | 10.60583 | 26382 ft | 351 kts | 317° |
| 2026-04-15 10:40 | 49.28952 | 10.57904 | 25975 ft | 350 kts | 317° |
| 2026-04-15 10:41 | 49.30641 | 10.55235 | 25574 ft | 349 kts | 316° |
| 2026-04-15 10:41 | 49.32328 | 10.52571 | 25179 ft | 348 kts | 316° |
| 2026-04-15 10:41 | 49.33991 | 10.49943 | 24793 ft | 348 kts | 316° |
| 2026-04-15 10:41 | 49.35664 | 10.47266 | 24394 ft | 348 kts | 314° |
| 2026-04-15 10:42 | 49.37191 | 10.44329 | 24073 ft | 349 kts | 307° |
| 2026-04-15 10:42 | 49.38598 | 10.41251 | 23767 ft | 356 kts | 307° |
| 2026-04-15 10:42 | 49.40005 | 10.38138 | 23435 ft | 362 kts | 307° |
| 2026-04-15 10:42 | 49.41445 | 10.34947 | 23114 ft | 364 kts | 306° |
| 2026-04-15 10:43 | 49.42889 | 10.31754 | 22798 ft | 363 kts | 306° |
| 2026-04-15 10:43 | 49.44349 | 10.28531 | 22475 ft | 362 kts | 306° |
| 2026-04-15 10:43 | 49.45768 | 10.25402 | 22177 ft | 361 kts | 306° |
| 2026-04-15 10:43 | 49.47201 | 10.22244 | 21873 ft | 359 kts | 306° |
| 2026-04-15 10:44 | 49.48626 | 10.19098 | 21582 ft | 357 kts | 306° |
| 2026-04-15 10:44 | 49.50044 | 10.15969 | 21292 ft | 356 kts | 306° |
| 2026-04-15 10:44 | 49.51453 | 10.12854 | 21008 ft | 354 kts | 306° |
| 2026-04-15 10:44 | 49.52855 | 10.09751 | 20721 ft | 352 kts | 306° |
| 2026-04-15 10:45 | 49.54250 | 10.06663 | 20442 ft | 351 kts | 306° |
| 2026-04-15 10:45 | 49.55639 | 10.03584 | 20148 ft | 349 kts | 306° |
| 2026-04-15 10:45 | 49.57022 | 10.00514 | 19854 ft | 348 kts | 306° |
| 2026-04-15 10:45 | 49.58401 | 9.97450 | 19574 ft | 347 kts | 306° |
| 2026-04-15 10:46 | 49.59771 | 9.94398 | 19282 ft | 346 kts | 306° |
| 2026-04-15 10:46 | 49.61139 | 9.91350 | 19019 ft | 345 kts | 305° |
| 2026-04-15 10:46 | 49.62503 | 9.88309 | 18736 ft | 344 kts | 305° |
| 2026-04-15 10:46 | 49.63866 | 9.85269 | 18432 ft | 343 kts | 305° |
| 2026-04-15 10:47 | 49.65221 | 9.82240 | 18115 ft | 342 kts | 305° |
| 2026-04-15 10:47 | 49.66566 | 9.79230 | 17819 ft | 340 kts | 305° |
| 2026-04-15 10:47 | 49.67905 | 9.76229 | 17533 ft | 338 kts | 305° |
| 2026-04-15 10:47 | 49.69234 | 9.73249 | 17254 ft | 336 kts | 305° |
| 2026-04-15 10:48 | 49.70552 | 9.70291 | 16980 ft | 334 kts | 305° |
| 2026-04-15 10:48 | 49.71865 | 9.67340 | 16705 ft | 332 kts | 305° |
| 2026-04-15 10:48 | 49.73168 | 9.64409 | 16436 ft | 330 kts | 305° |
| 2026-04-15 10:48 | 49.74459 | 9.61499 | 16169 ft | 328 kts | 305° |
| 2026-04-15 10:49 | 49.75744 | 9.58600 | 15906 ft | 326 kts | 305° |
| 2026-04-15 10:49 | 49.77022 | 9.55715 | 15643 ft | 324 kts | 304° |
| 2026-04-15 10:49 | 49.78294 | 9.52839 | 15369 ft | 323 kts | 304° |
| 2026-04-15 10:49 | 49.79556 | 9.49984 | 15106 ft | 320 kts | 304° |
| 2026-04-15 10:50 | 49.80809 | 9.47144 | 14857 ft | 318 kts | 304° |
| 2026-04-15 10:50 | 49.82053 | 9.44322 | 14583 ft | 317 kts | 303° |
| 2026-04-15 10:50 | 49.83288 | 9.41521 | 14324 ft | 314 kts | 303° |
| 2026-04-15 10:50 | 49.84511 | 9.38737 | 14072 ft | 311 kts | 303° |
| 2026-04-15 10:51 | 49.85717 | 9.35973 | 13797 ft | 308 kts | 301° |
| 2026-04-15 10:51 | 49.86640 | 9.33014 | 13516 ft | 303 kts | 287° |
| 2026-04-15 10:51 | 49.87232 | 9.29898 | 13267 ft | 300 kts | 285° |
| 2026-04-15 10:51 | 49.87808 | 9.26771 | 13030 ft | 304 kts | 285° |
| 2026-04-15 10:52 | 49.88396 | 9.23603 | 12780 ft | 307 kts | 285° |
| 2026-04-15 10:52 | 49.88994 | 9.20422 | 12519 ft | 307 kts | 285° |
| 2026-04-15 10:52 | 49.89594 | 9.17249 | 12270 ft | 306 kts | 286° |
| 2026-04-15 10:52 | 49.90195 | 9.14079 | 12012 ft | 306 kts | 286° |
| 2026-04-15 10:53 | 49.90594 | 9.11984 | 11845 ft | 306 kts | 286° |
| 2026-04-15 10:53 | 49.91194 | 9.08827 | 11609 ft | 305 kts | 285° |
| 2026-04-15 10:53 | 49.91792 | 9.05675 | 11350 ft | 304 kts | 285° |
| 2026-04-15 10:53 | 49.92389 | 9.02527 | 11140 ft | 303 kts | 285° |
| 2026-04-15 10:54 | 49.92983 | 8.99407 | 10952 ft | 301 kts | 285° |
| 2026-04-15 10:54 | 49.93575 | 8.96307 | 10752 ft | 298 kts | 285° |
| 2026-04-15 10:54 | 49.94163 | 8.93237 | 10581 ft | 295 kts | 285° |
| 2026-04-15 10:54 | 49.94738 | 8.90219 | 10387 ft | 288 kts | 285° |
| 2026-04-15 10:55 | 49.95300 | 8.87265 | 10203 ft | 282 kts | 285° |
| 2026-04-15 10:55 | 49.95847 | 8.84383 | 10023 ft | 276 kts | 285° |
| 2026-04-15 10:55 | 49.96386 | 8.81537 | 9819 ft | 273 kts | 285° |
| 2026-04-15 10:55 | 49.96921 | 8.78707 | 9666 ft | 273 kts | 285° |
| 2026-04-15 10:56 | 49.97455 | 8.75883 | 9494 ft | 272 kts | 285° |
| 2026-04-15 10:56 | 49.97969 | 8.73063 | 9313 ft | 268 kts | 279° |
| 2026-04-15 10:56 | 49.97908 | 8.70221 | 9144 ft | 265 kts | 252° |
| 2026-04-15 10:56 | 49.97261 | 8.67525 | 9001 ft | 271 kts | 248° |
| 2026-04-15 10:57 | 49.96588 | 8.64765 | 8805 ft | 273 kts | 248° |
| 2026-04-15 10:57 | 49.95267 | 8.59289 | 8434 ft | 267 kts | 248° |
| 2026-04-15 10:57 | 49.94623 | 8.56619 | 8260 ft | 262 kts | 248° |
| 2026-04-15 10:58 | 49.93990 | 8.53999 | 8080 ft | 254 kts | 248° |
| 2026-04-15 10:58 | 49.93371 | 8.51438 | 7947 ft | 263 kts | 248° |
| 2026-04-15 10:58 | 49.92715 | 8.48731 | 7799 ft | 271 kts | 248° |
| 2026-04-15 10:58 | 49.92057 | 8.46001 | 7602 ft | 269 kts | 248° |
| 2026-04-15 10:59 | 49.91408 | 8.43310 | 7434 ft | 264 kts | 248° |
| 2026-04-15 10:59 | 49.90772 | 8.40669 | 7252 ft | 258 kts | 248° |
| 2026-04-15 10:59 | 49.90146 | 8.38077 | 7087 ft | 256 kts | 248° |
| 2026-04-15 10:59 | 49.89523 | 8.35501 | 6932 ft | 254 kts | 248° |
| 2026-04-15 11:00 | 49.88899 | 8.32929 | 6779 ft | 256 kts | 248° |
| 2026-04-15 11:00 | 49.88280 | 8.30379 | 6500 ft | 250 kts | 248° |
| 2026-04-15 11:00 | 49.87668 | 8.27857 | 6124 ft | 251 kts | 248° |
| 2026-04-15 11:00 | 49.87056 | 8.25338 | 5884 ft | 248 kts | 248° |
| 2026-04-15 11:01 | 49.86452 | 8.22859 | 5759 ft | 242 kts | 248° |
| 2026-04-15 11:01 | 49.85864 | 8.20442 | 5574 ft | 236 kts | 250° |
| 2026-04-15 11:01 | 49.85704 | 8.17952 | 5258 ft | 235 kts | 282° |
| 2026-04-15 11:01 | 49.86416 | 8.15711 | 5277 ft | 238 kts | 313° |
| 2026-04-15 11:02 | 49.87795 | 8.14383 | 5122 ft | 233 kts | 348° |
| 2026-04-15 11:02 | 49.89319 | 8.14528 | 4981 ft | 216 kts | 23° |
| 2026-04-15 11:02 | 49.90695 | 8.15500 | 4865 ft | 220 kts | 27° |
| 2026-04-15 11:02 | 49.92075 | 8.16525 | 4717 ft | 219 kts | 27° |
| 2026-04-15 11:03 | 49.93409 | 8.17559 | 4556 ft | 212 kts | 36° |
| 2026-04-15 11:03 | 49.94332 | 8.19201 | 4420 ft | 195 kts | 65° |
| 2026-04-15 11:03 | 49.94941 | 8.21171 | 4382 ft | 209 kts | 67° |
| 2026-04-15 11:03 | 49.95506 | 8.23241 | 4206 ft | 203 kts | 70° |
| 2026-04-15 11:04 | 49.96000 | 8.25241 | 4085 ft | 190 kts | 70° |
| 2026-04-15 11:04 | 49.96449 | 8.27104 | 3914 ft | 181 kts | 70° |
| 2026-04-15 11:04 | 49.96880 | 8.28897 | 3666 ft | 173 kts | 70° |
| 2026-04-15 11:04 | 49.97294 | 8.30612 | 3472 ft | 166 kts | 70° |
| 2026-04-15 11:05 | 49.97692 | 8.32283 | 3222 ft | 164 kts | 70° |
| 2026-04-15 11:05 | 49.98081 | 8.33907 | 3036 ft | 161 kts | 70° |
| 2026-04-15 11:05 | 49.98477 | 8.35560 | 2830 ft | 164 kts | 70° |
| 2026-04-15 11:05 | 49.98868 | 8.37197 | 2580 ft | 159 kts | 70° |
| 2026-04-15 11:06 | 49.99247 | 8.38782 | 2404 ft | 152 kts | 70° |
| 2026-04-15 11:06 | 49.99609 | 8.40285 | 2164 ft | 143 kts | 70° |
| 2026-04-15 11:06 | 49.99951 | 8.41715 | 1958 ft | 141 kts | 70° |
| 2026-04-15 11:06 | 50.00293 | 8.43158 | 1781 ft | 143 kts | 70° |
| 2026-04-15 11:07 | 50.00639 | 8.44591 | 1553 ft | 142 kts | 70° |
| 2026-04-15 11:07 | 50.00981 | 8.46023 | 1376 ft | 142 kts | 70° |
| 2026-04-15 11:07 | 50.01325 | 8.47455 | 1167 ft | 141 kts | 70° |
| 2026-04-15 11:07 | 50.01675 | 8.48884 | 945 ft | 143 kts | 72° |
| 2026-04-15 11:08 | 50.02010 | 8.50300 | 798 ft | 141 kts | 70° |
| 2026-04-15 11:08 | 50.02360 | 8.51759 | 602 ft | 146 kts | 71° |
| 2026-04-15 11:08 | 50.02708 | 8.53218 | 405 ft | 143 kts | 72° |
| 2026-04-15 11:08 | 50.03041 | 8.54619 | 351 ft | 127 kts | 69° |
| 2026-04-15 11:09 | 50.03297 | 8.55685 | 355 ft | 83 kts | 69° |
| 2026-04-15 11:09 | 50.03444 | 8.56231 | 363 ft | 34 kts | 49° |
| 2026-04-15 11:09 | 50.03597 | 8.56451 | 361 ft | 26 kts | 39° |
| 2026-04-15 11:09 | 50.03700 | 8.56581 | 363 ft | 11 kts | 39° |
| 2026-04-15 11:10 | 50.03718 | 8.56605 | 356 ft | 1 kts | 39° |
| 2026-04-15 11:10 | 50.03726 | 8.56615 | 361 ft | 2 kts | 39° |
| 2026-04-15 11:10 | 50.03751 | 8.56639 | 364 ft | 0 kts | 24° |
| 2026-04-15 11:11 | 50.03775 | 8.56680 | 364 ft | 11 kts | 59° |
| 2026-04-15 11:11 | 50.03815 | 8.56823 | 365 ft | 15 kts | 69° |
| 2026-04-15 11:11 | 50.03852 | 8.56977 | 367 ft | 15 kts | 70° |
| 2026-04-15 11:11 | 50.03888 | 8.57130 | 368 ft | 15 kts | 69° |
| 2026-04-15 11:12 | 50.03925 | 8.57283 | 370 ft | 15 kts | 69° |
| 2026-04-15 11:12 | 50.03961 | 8.57437 | 373 ft | 15 kts | 70° |
| 2026-04-15 11:12 | 50.03998 | 8.57591 | 372 ft | 15 kts | 70° |
| 2026-04-15 11:12 | 50.04035 | 8.57745 | 375 ft | 15 kts | 70° |
| 2026-04-15 11:13 | 50.04071 | 8.57899 | 376 ft | 15 kts | 70° |
| 2026-04-15 11:13 | 50.04109 | 8.58052 | 377 ft | 15 kts | 69° |
| 2026-04-15 11:13 | 50.04181 | 8.58160 | 375 ft | 16 kts | 24° |
| 2026-04-15 11:13 | 50.04289 | 8.58198 | 373 ft | 16 kts | 351° |
| 2026-04-15 11:14 | 50.04391 | 8.58142 | 376 ft | 15 kts | 339° |
| 2026-04-15 11:14 | 50.04498 | 8.58081 | 374 ft | 17 kts | 340° |
| 2026-04-15 11:14 | 50.04623 | 8.58008 | 368 ft | 21 kts | 339° |
| 2026-04-15 11:14 | 50.04702 | 8.57919 | 366 ft | 13 kts | 285° |
| 2026-04-15 11:15 | 50.04679 | 8.57776 | 369 ft | 14 kts | 250° |
| 2026-04-15 11:15 | 50.04644 | 8.57634 | 369 ft | 14 kts | 249° |
| 2026-04-15 11:15 | 50.04609 | 8.57491 | 367 ft | 14 kts | 249° |
| 2026-04-15 11:15 | 50.04574 | 8.57341 | 366 ft | 15 kts | 250° |
| 2026-04-15 11:16 | 50.04538 | 8.57190 | 369 ft | 15 kts | 250° |
| 2026-04-15 11:16 | 50.04502 | 8.57038 | 367 ft | 15 kts | 249° |
| 2026-04-15 11:16 | 50.04494 | 8.56910 | 367 ft | 10 kts | 311° |
| 2026-04-15 11:16 | 50.04530 | 8.56907 | 371 ft | 6 kts | 28° |
| 2026-04-15 11:17 | 50.04556 | 8.56952 | 371 ft | 6 kts | 56° |
| 2026-04-15 11:17 | 50.04580 | 8.57012 | 370 ft | 8 kts | 59° |
| 2026-04-15 11:17 | 50.04594 | 8.57050 | 368 ft | 0 kts | 59° |